Aeroporto :
LOGIN :

Iscrizione | Disclaimer

   EN    FR    IT 

 










Sommario :    VFR   VFR Marginale   IFR   IFR Intensivo   IFR Molto Intensivo
Visibilità : 
Base nubi : 
>= 8 km
>= 3000ft
5 / 8 km
1000 / 3000 ft
1500m / 5 km
500 / 1000 ft
800 / 1500m
200 / 500 ft
< 800m
< 200 ft
Simboli :   Temporali  Nebbia  Neve Forte  Precipitazioni Forti  Vento > 20 kt
SIGMETs :   Varie  Temporali  Ghiacco  Turbolenza  Onda orograficha  Ceneri Vulcaniche






- Altitudine del aeroporto : 125 ft
- Codice IATA : MGL


EDLN - Mönchengladbach

ULTIMO METAR :
  • 231420Z 10004KT 5000 FEW010 OVC032 06/04 Q1035

METARs OBSOLETI :
  • 231350Z VRB02KT 6000 FEW012 OVC032 06/04 Q1035
  • 231320Z VRB01KT 7000 OVC030 06/04 Q1035
  • 231250Z 00000KT 7000 SCT009 OVC030 06/04 Q1035
  • 231220Z VRB01KT 5000 BR FEW009 OVC030 06/04 Q1036
  • 231150Z 00000KT 5000 BR FEW008 OVC031 06/04 Q1036
  • 231120Z 00000KT 5000 BR OVC031 06/04 Q1036

TAF TAF EDLN
Valido dal 23 a 12 ore il 23 a 21 ore UTC


231100Z 2312/2321 VRB03KT 6000 BKN030



MetMap, La meteo Aeronautica in un colpo d'occhio ! - Copyright ORBIFLY Dicembre 2007 - Disclaimer

ORBIFLY MET'MAP TEAM :

Programmazione e sviluppo : Alexandra Zaïnal
Concezione : Baudouin d'Aumeries
Aiuto per la programmazione : Marc-Olivier Méhu
Supporto tecnico e logistico : Manuel Goepfert
Aiuto per la traduzione : Arnaldo La Scala

Contatto : metmap@orbifly.com




FONTI E CREDITI :

   NOAA